sensor_id;sensor_type;location;lat;lon;timestamp;noise_LAeq;noise_LA_min;noise_LA_max;noise_LA01;noise_LA95
40465;Laerm;30489;48.982;8.394;2023-07-31T00:00:05;40.83;39.46;42.22;;
40465;Laerm;30489;48.982;8.394;2023-07-31T00:02:17;40.84;39.34;42.16;;
40465;Laerm;30489;48.982;8.394;2023-07-31T00:04:27;40.84;39.21;42.03;;
40465;Laerm;30489;48.982;8.394;2023-07-31T00:06:37;40.87;39.21;42.00;;
40465;Laerm;30489;48.982;8.394;2023-07-31T00:08:47;40.88;39.58;42.16;;
40465;Laerm;30489;48.982;8.394;2023-07-31T00:10:58;40.90;39.34;42.29;;
40465;Laerm;30489;48.982;8.394;2023-07-31T00:13:08;40.86;39.46;42.16;;
40465;Laerm;30489;48.982;8.394;2023-07-31T00:15:21;40.87;39.46;42.16;;
40465;Laerm;30489;48.982;8.394;2023-07-31T00:17:31;40.87;39.58;43.72;;
40465;Laerm;30489;48.982;8.394;2023-07-31T00:19:42;40.88;39.46;42.09;;
40465;Laerm;30489;48.982;8.394;2023-07-31T00:21:52;40.82;39.34;42.98;;
40465;Laerm;30489;48.982;8.394;2023-07-31T00:24:02;40.80;39.08;42.03;;
40465;Laerm;30489;48.982;8.394;2023-07-31T00:26:12;40.81;39.21;42.03;;
40465;Laerm;30489;48.982;8.394;2023-07-31T00:28:22;40.82;39.08;42.29;;
40465;Laerm;30489;48.982;8.394;2023-07-31T00:30:33;40.85;39.21;42.29;;
40465;Laerm;30489;48.982;8.394;2023-07-31T00:32:43;40.81;39.21;42.09;;
40465;Laerm;30489;48.982;8.394;2023-07-31T00:34:53;40.81;39.46;42.03;;
40465;Laerm;30489;48.982;8.394;2023-07-31T00:37:04;40.80;39.34;42.03;;
40465;Laerm;30489;48.982;8.394;2023-07-31T00:39:14;40.79;38.95;42.09;;
40465;Laerm;30489;48.982;8.394;2023-07-31T00:41:24;40.78;39.34;42.03;;
40465;Laerm;30489;48.982;8.394;2023-07-31T00:43:34;40.76;39.34;42.03;;
40465;Laerm;30489;48.982;8.394;2023-07-31T00:45:44;40.72;39.08;41.96;;
40465;Laerm;30489;48.982;8.394;2023-07-31T00:47:54;40.74;39.34;42.35;;
40465;Laerm;30489;48.982;8.394;2023-07-31T00:50:05;40.77;38.95;42.16;;
40465;Laerm;30489;48.982;8.394;2023-07-31T00:52:15;40.78;39.21;42.16;;
40465;Laerm;30489;48.982;8.394;2023-07-31T00:54:26;40.85;39.08;42.16;;
40465;Laerm;30489;48.982;8.394;2023-07-31T00:56:36;40.86;39.58;42.29;;
40465;Laerm;30489;48.982;8.394;2023-07-31T00:58:46;40.91;39.08;42.35;;
40465;Laerm;30489;48.982;8.394;2023-07-31T01:00:56;40.90;39.46;42.16;;
40465;Laerm;30489;48.982;8.394;2023-07-31T01:03:07;40.88;39.34;42.16;;
40465;Laerm;30489;48.982;8.394;2023-07-31T01:05:22;40.89;39.21;42.16;;
40465;Laerm;30489;48.982;8.394;2023-07-31T01:07:39;40.88;39.21;42.16;;
40465;Laerm;30489;48.982;8.394;2023-07-31T01:10:35;40.88;39.46;43.09;;
40465;Laerm;30489;48.982;8.394;2023-07-31T01:12:26;40.88;39.21;42.16;;
40465;Laerm;30489;48.982;8.394;2023-07-31T01:17:12;40.81;39.46;42.03;;
40465;Laerm;30489;48.982;8.394;2023-07-31T01:19:23;40.82;39.34;42.22;;
40465;Laerm;30489;48.982;8.394;2023-07-31T01:21:41;40.82;39.34;42.03;;
40465;Laerm;30489;48.982;8.394;2023-07-31T01:24:08;40.78;39.34;42.03;;
40465;Laerm;30489;48.982;8.394;2023-07-31T01:26:24;40.77;39.35;41.89;;
40465;Laerm;30489;48.982;8.394;2023-07-31T01:30:48;40.73;38.95;45.51;;
40465;Laerm;30489;48.982;8.394;2023-07-31T01:32:58;40.68;39.08;41.82;;
40465;Laerm;30489;48.982;8.394;2023-07-31T01:35:08;40.69;39.08;41.96;;
40465;Laerm;30489;48.982;8.394;2023-07-31T01:37:19;40.70;38.95;42.09;;
40465;Laerm;30489;48.982;8.394;2023-07-31T01:39:29;40.65;39.34;41.82;;
40465;Laerm;30489;48.982;8.394;2023-07-31T01:41:39;40.62;39.08;41.89;;
40465;Laerm;30489;48.982;8.394;2023-07-31T01:43:49;40.61;39.21;41.89;;
40465;Laerm;30489;48.982;8.394;2023-07-31T01:46:00;40.59;38.81;41.75;;
40465;Laerm;30489;48.982;8.394;2023-07-31T01:48:10;40.57;38.95;42.03;;
40465;Laerm;30489;48.982;8.394;2023-07-31T01:50:20;40.65;39.11;41.89;;
40465;Laerm;30489;48.982;8.394;2023-07-31T01:52:30;40.68;38.95;41.89;;
40465;Laerm;30489;48.982;8.394;2023-07-31T01:54:40;40.71;39.21;42.16;;
40465;Laerm;30489;48.982;8.394;2023-07-31T01:56:51;40.70;39.21;42.03;;
40465;Laerm;30489;48.982;8.394;2023-07-31T01:59:01;40.68;39.34;41.96;;
40465;Laerm;30489;48.982;8.394;2023-07-31T02:01:11;40.68;39.08;41.89;;
40465;Laerm;30489;48.982;8.394;2023-07-31T02:03:21;40.64;38.95;41.89;;
40465;Laerm;30489;48.982;8.394;2023-07-31T02:05:32;40.59;39.08;42.03;;
40465;Laerm;30489;48.982;8.394;2023-07-31T02:07:42;40.59;38.95;41.75;;
40465;Laerm;30489;48.982;8.394;2023-07-31T02:09:52;40.61;39.21;41.89;;
40465;Laerm;30489;48.982;8.394;2023-07-31T02:12:02;40.61;39.21;41.89;;
40465;Laerm;30489;48.982;8.394;2023-07-31T02:14:12;40.63;38.52;41.82;;
40465;Laerm;30489;48.982;8.394;2023-07-31T02:16:23;40.62;38.95;42.03;;
40465;Laerm;30489;48.982;8.394;2023-07-31T02:18:33;40.59;39.08;41.75;;
40465;Laerm;30489;48.982;8.394;2023-07-31T02:20:43;40.60;39.08;41.96;;
40465;Laerm;30489;48.982;8.394;2023-07-31T02:22:56;40.55;38.37;41.89;;
40465;Laerm;30489;48.982;8.394;2023-07-31T02:25:06;40.56;38.95;42.03;;
40465;Laerm;30489;48.982;8.394;2023-07-31T02:27:16;40.57;38.95;41.96;;
40465;Laerm;30489;48.982;8.394;2023-07-31T02:29:27;40.59;39.08;41.82;;
40465;Laerm;30489;48.982;8.394;2023-07-31T02:31:37;40.58;38.81;42.09;;
40465;Laerm;30489;48.982;8.394;2023-07-31T02:33:47;40.56;38.95;41.82;;
40465;Laerm;30489;48.982;8.394;2023-07-31T02:35:57;40.62;39.08;42.03;;
40465;Laerm;30489;48.982;8.394;2023-07-31T02:38:07;40.64;39.21;41.89;;
40465;Laerm;30489;48.982;8.394;2023-07-31T02:40:18;40.63;38.95;41.96;;
40465;Laerm;30489;48.982;8.394;2023-07-31T02:42:28;40.61;39.08;42.16;;
40465;Laerm;30489;48.982;8.394;2023-07-31T02:44:38;40.63;38.95;42.03;;
40465;Laerm;30489;48.982;8.394;2023-07-31T02:46:48;40.60;38.95;42.03;;
40465;Laerm;30489;48.982;8.394;2023-07-31T02:48:59;40.55;38.95;41.89;;
40465;Laerm;30489;48.982;8.394;2023-07-31T02:51:09;40.55;39.08;41.82;;
40465;Laerm;30489;48.982;8.394;2023-07-31T02:53:19;40.57;38.95;41.82;;
40465;Laerm;30489;48.982;8.394;2023-07-31T02:55:30;40.53;38.95;41.82;;
40465;Laerm;30489;48.982;8.394;2023-07-31T02:57:40;40.52;39.08;41.89;;
40465;Laerm;30489;48.982;8.394;2023-07-31T02:59:50;40.52;38.95;42.03;;
40465;Laerm;30489;48.982;8.394;2023-07-31T03:02:00;40.48;38.81;41.68;;
40465;Laerm;30489;48.982;8.394;2023-07-31T03:04:10;40.48;38.81;45.14;;
40465;Laerm;30489;48.982;8.394;2023-07-31T03:06:20;40.51;38.67;42.03;;
40465;Laerm;30489;48.982;8.394;2023-07-31T03:08:31;40.53;38.81;41.89;;
40465;Laerm;30489;48.982;8.394;2023-07-31T03:10:41;40.48;38.67;41.82;;
40465;Laerm;30489;48.982;8.394;2023-07-31T03:12:51;40.53;39.08;41.89;;
40465;Laerm;30489;48.982;8.394;2023-07-31T03:15:01;40.57;38.95;41.82;;
40465;Laerm;30489;48.982;8.394;2023-07-31T03:17:11;40.58;38.95;42.22;;
40465;Laerm;30489;48.982;8.394;2023-07-31T03:19:22;40.56;38.95;41.82;;
40465;Laerm;30489;48.982;8.394;2023-07-31T03:21:32;40.54;39.08;41.96;;
40465;Laerm;30489;48.982;8.394;2023-07-31T03:23:42;40.52;39.08;41.89;;
40465;Laerm;30489;48.982;8.394;2023-07-31T03:25:57;40.53;38.95;41.82;;
40465;Laerm;30489;48.982;8.394;2023-07-31T03:28:07;40.56;38.95;41.89;;
40465;Laerm;30489;48.982;8.394;2023-07-31T03:30:18;40.61;39.08;41.88;;
40465;Laerm;30489;48.982;8.394;2023-07-31T03:32:28;40.61;39.21;41.82;;
40465;Laerm;30489;48.982;8.394;2023-07-31T03:34:38;40.62;39.08;42.22;;
40465;Laerm;30489;48.982;8.394;2023-07-31T03:36:48;40.63;39.08;42.03;;
40465;Laerm;30489;48.982;8.394;2023-07-31T03:38:58;40.68;39.08;41.82;;
40465;Laerm;30489;48.982;8.394;2023-07-31T03:41:09;40.69;39.08;53.75;;
40465;Laerm;30489;48.982;8.394;2023-07-31T03:43:20;40.67;39.21;42.03;;
40465;Laerm;30489;48.982;8.394;2023-07-31T03:45:30;40.66;39.21;41.89;;
40465;Laerm;30489;48.982;8.394;2023-07-31T03:47:40;40.63;38.95;42.82;;
40465;Laerm;30489;48.982;8.394;2023-07-31T03:49:51;40.60;39.34;42.03;;
40465;Laerm;30489;48.982;8.394;2023-07-31T03:52:01;40.59;38.81;41.82;;
40465;Laerm;30489;48.982;8.394;2023-07-31T03:54:11;40.64;38.67;42.09;;
40465;Laerm;30489;48.982;8.394;2023-07-31T03:56:23;40.65;39.21;41.89;;
40465;Laerm;30489;48.982;8.394;2023-07-31T03:58:33;40.66;39.21;41.96;;
40465;Laerm;30489;48.982;8.394;2023-07-31T04:00:43;40.73;38.95;41.96;;
40465;Laerm;30489;48.982;8.394;2023-07-31T04:02:53;40.74;38.81;42.22;;
40465;Laerm;30489;48.982;8.394;2023-07-31T04:05:03;40.76;39.21;41.96;;
40465;Laerm;30489;48.982;8.394;2023-07-31T04:07:14;40.72;38.99;42.41;;
40465;Laerm;30489;48.982;8.394;2023-07-31T04:09:24;40.72;39.21;42.03;;
40465;Laerm;30489;48.982;8.394;2023-07-31T04:11:34;40.73;39.34;41.96;;
40465;Laerm;30489;48.982;8.394;2023-07-31T04:13:44;40.78;39.21;42.22;;
40465;Laerm;30489;48.982;8.394;2023-07-31T04:15:54;40.80;39.21;41.89;;
40465;Laerm;30489;48.982;8.394;2023-07-31T04:18:05;40.84;39.08;42.41;;
40465;Laerm;30489;48.982;8.394;2023-07-31T04:20:15;40.84;39.46;42.29;;
40465;Laerm;30489;48.982;8.394;2023-07-31T04:22:25;40.83;39.08;43.24;;
40465;Laerm;30489;48.982;8.394;2023-07-31T04:24:35;40.89;39.34;42.09;;
40465;Laerm;30489;48.982;8.394;2023-07-31T04:26:46;40.94;39.46;42.16;;
40465;Laerm;30489;48.982;8.394;2023-07-31T04:28:56;40.96;39.46;42.09;;
40465;Laerm;30489;48.982;8.394;2023-07-31T04:31:06;40.98;38.95;42.41;;
40465;Laerm;30489;48.982;8.394;2023-07-31T04:33:16;40.95;39.58;42.03;;
40465;Laerm;30489;48.982;8.394;2023-07-31T04:35:27;40.92;39.46;42.22;;
40465;Laerm;30489;48.982;8.394;2023-07-31T04:37:37;40.90;39.58;42.09;;
40465;Laerm;30489;48.982;8.394;2023-07-31T04:39:48;40.91;39.57;42.35;;
40465;Laerm;30489;48.982;8.394;2023-07-31T04:41:58;40.92;39.34;42.16;;
40465;Laerm;30489;48.982;8.394;2023-07-31T04:44:08;40.91;39.21;42.16;;
40465;Laerm;30489;48.982;8.394;2023-07-31T04:46:21;40.96;39.70;42.22;;
40465;Laerm;30489;48.982;8.394;2023-07-31T04:48:31;40.97;39.58;42.03;;
40465;Laerm;30489;48.982;8.394;2023-07-31T04:50:41;40.96;39.58;42.16;;
40465;Laerm;30489;48.982;8.394;2023-07-31T04:52:51;40.96;39.58;42.35;;
40465;Laerm;30489;48.982;8.394;2023-07-31T04:55:02;40.97;39.58;42.16;;
40465;Laerm;30489;48.982;8.394;2023-07-31T04:57:12;40.99;39.70;42.22;;
40465;Laerm;30489;48.982;8.394;2023-07-31T04:59:23;40.98;39.58;42.09;;
40465;Laerm;30489;48.982;8.394;2023-07-31T05:01:33;40.99;39.57;42.09;;
40465;Laerm;30489;48.982;8.394;2023-07-31T05:03:43;41.03;39.70;42.47;;
40465;Laerm;30489;48.982;8.394;2023-07-31T05:05:53;41.02;39.46;42.22;;
40465;Laerm;30489;48.982;8.394;2023-07-31T05:08:03;41.04;39.70;42.29;;
40465;Laerm;30489;48.982;8.394;2023-07-31T05:10:14;41.08;39.46;42.29;;
40465;Laerm;30489;48.982;8.394;2023-07-31T05:12:24;41.07;39.70;42.22;;
40465;Laerm;30489;48.982;8.394;2023-07-31T05:14:34;41.07;39.58;42.29;;
40465;Laerm;30489;48.982;8.394;2023-07-31T05:16:44;41.05;39.81;42.29;;
40465;Laerm;30489;48.982;8.394;2023-07-31T05:18:54;41.07;39.70;42.22;;
40465;Laerm;30489;48.982;8.394;2023-07-31T05:21:05;41.05;39.81;42.16;;
40465;Laerm;30489;48.982;8.394;2023-07-31T05:23:15;41.03;39.70;42.41;;
40465;Laerm;30489;48.982;8.394;2023-07-31T05:25:25;41.05;39.70;42.16;;
40465;Laerm;30489;48.982;8.394;2023-07-31T05:27:35;41.05;39.70;42.47;;
40465;Laerm;30489;48.982;8.394;2023-07-31T05:29:46;41.05;39.58;42.30;;
40465;Laerm;30489;48.982;8.394;2023-07-31T05:31:56;41.05;39.46;44.01;;
40465;Laerm;30489;48.982;8.394;2023-07-31T05:34:06;41.10;39.46;42.35;;
40465;Laerm;30489;48.982;8.394;2023-07-31T05:36:17;41.15;39.58;43.77;;
40465;Laerm;30489;48.982;8.394;2023-07-31T05:38:27;41.10;39.58;42.53;;
40465;Laerm;30489;48.982;8.394;2023-07-31T05:40:37;41.18;39.92;42.29;;
40465;Laerm;30489;48.982;8.394;2023-07-31T05:42:47;41.18;39.58;42.59;;
40465;Laerm;30489;48.982;8.394;2023-07-31T05:44:57;41.15;39.92;42.76;;
40465;Laerm;30489;48.982;8.394;2023-07-31T05:47:08;41.16;39.81;42.41;;
40465;Laerm;30489;48.982;8.394;2023-07-31T05:49:18;41.15;39.70;42.41;;
40465;Laerm;30489;48.982;8.394;2023-07-31T05:51:28;41.19;39.70;42.41;;
40465;Laerm;30489;48.982;8.394;2023-07-31T05:53:38;41.19;39.81;42.29;;
40465;Laerm;30489;48.982;8.394;2023-07-31T05:55:50;41.19;39.81;42.47;;
40465;Laerm;30489;48.982;8.394;2023-07-31T05:58:01;41.20;39.70;43.44;;
40465;Laerm;30489;48.982;8.394;2023-07-31T06:00:11;41.19;39.58;42.35;;
40465;Laerm;30489;48.982;8.394;2023-07-31T06:02:22;41.19;39.70;42.29;;
40465;Laerm;30489;48.982;8.394;2023-07-31T06:04:32;41.20;39.92;42.47;;
40465;Laerm;30489;48.982;8.394;2023-07-31T06:06:42;41.20;39.57;42.47;;
40465;Laerm;30489;48.982;8.394;2023-07-31T06:08:52;41.15;39.58;42.29;;
40465;Laerm;30489;48.982;8.394;2023-07-31T06:11:02;41.21;39.81;42.29;;
40465;Laerm;30489;48.982;8.394;2023-07-31T06:13:13;41.20;39.70;42.29;;
40465;Laerm;30489;48.982;8.394;2023-07-31T06:15:23;41.24;39.92;42.41;;
40465;Laerm;30489;48.982;8.394;2023-07-31T06:17:34;41.23;39.68;42.59;;
40465;Laerm;30489;48.982;8.394;2023-07-31T06:19:44;41.23;39.92;42.53;;
40465;Laerm;30489;48.982;8.394;2023-07-31T06:21:54;41.26;39.70;42.65;;
40465;Laerm;30489;48.982;8.394;2023-07-31T06:24:07;41.24;39.81;46.73;;
40465;Laerm;30489;48.982;8.394;2023-07-31T06:26:17;41.26;40.03;42.41;;
40465;Laerm;30489;48.982;8.394;2023-07-31T06:28:28;41.25;39.92;42.47;;
40465;Laerm;30489;48.982;8.394;2023-07-31T06:30:39;41.25;39.92;43.54;;
40465;Laerm;30489;48.982;8.394;2023-07-31T06:32:49;41.23;39.81;42.65;;
40465;Laerm;30489;48.982;8.394;2023-07-31T06:34:59;41.24;39.92;42.59;;
40465;Laerm;30489;48.982;8.394;2023-07-31T06:37:10;41.24;39.78;42.47;;
40465;Laerm;30489;48.982;8.394;2023-07-31T06:39:20;41.17;39.81;42.41;;
40465;Laerm;30489;48.982;8.394;2023-07-31T06:41:30;41.18;39.81;42.41;;
40465;Laerm;30489;48.982;8.394;2023-07-31T06:43:40;41.18;39.81;42.35;;
40465;Laerm;30489;48.982;8.394;2023-07-31T06:45:50;41.28;40.03;42.53;;
40465;Laerm;30489;48.982;8.394;2023-07-31T06:48:01;41.35;40.13;42.65;;
40465;Laerm;30489;48.982;8.394;2023-07-31T06:50:12;41.28;39.81;42.41;;
40465;Laerm;30489;48.982;8.394;2023-07-31T06:52:22;41.29;39.81;42.71;;
40465;Laerm;30489;48.982;8.394;2023-07-31T06:54:32;41.33;39.92;42.47;;
40465;Laerm;30489;48.982;8.394;2023-07-31T06:56:42;41.32;39.81;42.35;;
40465;Laerm;30489;48.982;8.394;2023-07-31T06:58:52;41.29;40.03;42.41;;
40465;Laerm;30489;48.982;8.394;2023-07-31T07:01:03;41.31;39.92;42.41;;
40465;Laerm;30489;48.982;8.394;2023-07-31T07:03:13;41.29;39.92;42.41;;
40465;Laerm;30489;48.982;8.394;2023-07-31T07:05:24;41.29;40.03;42.42;;
40465;Laerm;30489;48.982;8.394;2023-07-31T07:07:35;41.31;39.81;42.53;;
40465;Laerm;30489;48.982;8.394;2023-07-31T07:09:45;41.32;39.92;42.41;;
40465;Laerm;30489;48.982;8.394;2023-07-31T07:11:55;41.35;39.92;44.35;;
40465;Laerm;30489;48.982;8.394;2023-07-31T07:14:05;41.32;39.92;42.76;;
40465;Laerm;30489;48.982;8.394;2023-07-31T07:16:15;41.32;39.92;42.53;;
40465;Laerm;30489;48.982;8.394;2023-07-31T07:18:26;41.31;39.89;42.53;;
40465;Laerm;30489;48.982;8.394;2023-07-31T07:20:36;41.33;39.92;50.11;;
40465;Laerm;30489;48.982;8.394;2023-07-31T07:22:46;41.37;40.13;42.53;;
40465;Laerm;30489;48.982;8.394;2023-07-31T07:24:56;41.40;40.03;42.47;;
40465;Laerm;30489;48.982;8.394;2023-07-31T07:27:07;41.37;39.70;42.53;;
40465;Laerm;30489;48.982;8.394;2023-07-31T07:29:17;41.37;39.81;42.53;;
40465;Laerm;30489;48.982;8.394;2023-07-31T07:31:27;41.45;40.08;42.59;;
40465;Laerm;30489;48.982;8.394;2023-07-31T07:33:38;41.53;40.13;42.71;;
40465;Laerm;30489;48.982;8.394;2023-07-31T07:35:48;41.54;39.92;42.65;;
40465;Laerm;30489;48.982;8.394;2023-07-31T07:37:58;41.53;40.13;42.65;;
40465;Laerm;30489;48.982;8.394;2023-07-31T07:40:09;41.53;40.23;42.53;;
40465;Laerm;30489;48.982;8.394;2023-07-31T07:42:19;41.52;40.23;42.59;;
40465;Laerm;30489;48.982;8.394;2023-07-31T07:44:29;41.54;40.33;42.71;;
40465;Laerm;30489;48.982;8.394;2023-07-31T07:46:39;41.57;40.13;42.71;;
40465;Laerm;30489;48.982;8.394;2023-07-31T07:48:50;41.58;40.23;42.88;;
40465;Laerm;30489;48.982;8.394;2023-07-31T07:51:00;41.58;40.33;42.65;;
40465;Laerm;30489;48.982;8.394;2023-07-31T07:53:10;41.59;39.92;42.65;;
40465;Laerm;30489;48.982;8.394;2023-07-31T07:55:20;41.60;40.03;42.76;;
40465;Laerm;30489;48.982;8.394;2023-07-31T07:57:30;41.61;40.43;44.54;;
40465;Laerm;30489;48.982;8.394;2023-07-31T07:59:41;41.61;40.33;42.82;;
40465;Laerm;30489;48.982;8.394;2023-07-31T08:01:51;41.58;40.13;42.65;;
40465;Laerm;30489;48.982;8.394;2023-07-31T08:04:02;41.60;40.13;42.71;;
40465;Laerm;30489;48.982;8.394;2023-07-31T08:06:12;41.62;40.43;42.69;;
40465;Laerm;30489;48.982;8.394;2023-07-31T08:08:23;41.64;40.13;42.71;;
40465;Laerm;30489;48.982;8.394;2023-07-31T08:10:33;41.65;40.03;42.71;;
40465;Laerm;30489;48.982;8.394;2023-07-31T08:12:43;41.66;40.13;42.88;;
40465;Laerm;30489;48.982;8.394;2023-07-31T08:14:53;41.65;40.43;42.71;;
40465;Laerm;30489;48.982;8.394;2023-07-31T08:17:03;41.70;40.33;42.93;;
40465;Laerm;30489;48.982;8.394;2023-07-31T08:19:14;41.69;40.43;42.76;;
40465;Laerm;30489;48.982;8.394;2023-07-31T08:21:24;41.71;40.45;42.93;;
40465;Laerm;30489;48.982;8.394;2023-07-31T08:23:34;41.72;40.33;43.04;;
40465;Laerm;30489;48.982;8.394;2023-07-31T08:25:45;41.73;40.45;42.76;;
40465;Laerm;30489;48.982;8.394;2023-07-31T08:27:55;41.74;40.43;43.04;;
40465;Laerm;30489;48.982;8.394;2023-07-31T08:30:05;41.72;40.43;42.71;;
40465;Laerm;30489;48.982;8.394;2023-07-31T08:32:16;41.70;40.43;42.82;;
40465;Laerm;30489;48.982;8.394;2023-07-31T08:34:26;41.67;40.33;42.71;;
40465;Laerm;30489;48.982;8.394;2023-07-31T08:36:36;41.66;40.43;42.71;;
40465;Laerm;30489;48.982;8.394;2023-07-31T08:38:46;41.68;40.23;43.34;;
40465;Laerm;30489;48.982;8.394;2023-07-31T08:40:57;41.69;40.43;42.82;;
40465;Laerm;30489;48.982;8.394;2023-07-31T08:43:08;41.65;40.43;42.76;;
40465;Laerm;30489;48.982;8.394;2023-07-31T08:45:19;41.66;40.45;42.65;;
40465;Laerm;30489;48.982;8.394;2023-07-31T08:47:29;41.70;40.33;42.82;;
40465;Laerm;30489;48.982;8.394;2023-07-31T08:49:40;41.73;40.33;42.88;;
40465;Laerm;30489;48.982;8.394;2023-07-31T08:51:51;41.78;40.53;42.88;;
40465;Laerm;30489;48.982;8.394;2023-07-31T08:54:02;41.79;40.62;42.82;;
40465;Laerm;30489;48.982;8.394;2023-07-31T08:56:14;41.83;40.33;43.68;;
40465;Laerm;30489;48.982;8.394;2023-07-31T08:58:25;41.81;40.53;42.98;;
40465;Laerm;30489;48.982;8.394;2023-07-31T09:00:37;41.84;40.62;42.88;;
40465;Laerm;30489;48.982;8.394;2023-07-31T09:05:12;41.86;40.62;43.04;;
40465;Laerm;30489;48.982;8.394;2023-07-31T09:07:22;41.87;40.71;43.54;;
40465;Laerm;30489;48.982;8.394;2023-07-31T09:09:34;41.89;40.62;43.77;;
40465;Laerm;30489;48.982;8.394;2023-07-31T09:11:44;41.89;40.53;43.14;;
40465;Laerm;30489;48.982;8.394;2023-07-31T09:13:55;41.84;40.71;42.98;;
40465;Laerm;30489;48.982;8.394;2023-07-31T09:16:08;41.90;40.53;43.24;;
40465;Laerm;30489;48.982;8.394;2023-07-31T09:18:18;41.89;40.71;43.19;;
40465;Laerm;30489;48.982;8.394;2023-07-31T09:20:32;41.88;40.53;43.09;;
40465;Laerm;30489;48.982;8.394;2023-07-31T09:22:44;41.89;40.62;45.07;;
40465;Laerm;30489;48.982;8.394;2023-07-31T09:24:54;41.89;40.43;43.19;;
40465;Laerm;30489;48.982;8.394;2023-07-31T09:27:05;41.90;40.62;42.98;;
40465;Laerm;30489;48.982;8.394;2023-07-31T09:29:18;41.89;40.71;42.98;;
40465;Laerm;30489;48.982;8.394;2023-07-31T09:31:46;41.88;40.45;43.04;;
40465;Laerm;30489;48.982;8.394;2023-07-31T09:33:56;41.90;40.43;43.04;;
40465;Laerm;30489;48.982;8.394;2023-07-31T09:36:07;41.89;40.62;42.93;;
40465;Laerm;30489;48.982;8.394;2023-07-31T09:38:17;41.93;40.62;43.24;;
40465;Laerm;30489;48.982;8.394;2023-07-31T09:41:01;41.91;40.71;43.09;;
40465;Laerm;30489;48.982;8.394;2023-07-31T09:43:05;41.94;40.53;43.09;;
40465;Laerm;30489;48.982;8.394;2023-07-31T09:45:16;41.95;40.62;43.14;;
40465;Laerm;30489;48.982;8.394;2023-07-31T09:47:28;41.95;40.62;43.29;;
40465;Laerm;30489;48.982;8.394;2023-07-31T09:49:45;41.95;40.71;43.24;;
40465;Laerm;30489;48.982;8.394;2023-07-31T09:51:55;41.95;40.53;43.39;;
40465;Laerm;30489;48.982;8.394;2023-07-31T09:54:09;41.94;40.62;42.98;;
40465;Laerm;30489;48.982;8.394;2023-07-31T09:56:19;41.96;40.62;43.29;;
40465;Laerm;30489;48.982;8.394;2023-07-31T09:58:32;41.94;40.53;43.09;;
40465;Laerm;30489;48.982;8.394;2023-07-31T10:00:44;41.94;40.71;43.04;;
40465;Laerm;30489;48.982;8.394;2023-07-31T10:02:54;41.94;40.53;43.04;;
40465;Laerm;30489;48.982;8.394;2023-07-31T10:05:08;41.96;40.62;43.28;;
40465;Laerm;30489;48.982;8.394;2023-07-31T10:07:18;41.94;40.62;43.00;;
40465;Laerm;30489;48.982;8.394;2023-07-31T10:09:30;41.93;40.71;42.93;;
40465;Laerm;30489;48.982;8.394;2023-07-31T10:11:41;41.95;40.71;43.09;;
40465;Laerm;30489;48.982;8.394;2023-07-31T10:13:53;41.94;40.71;43.09;;
40465;Laerm;30489;48.982;8.394;2023-07-31T10:16:04;41.95;40.62;43.09;;
40465;Laerm;30489;48.982;8.394;2023-07-31T10:18:15;41.94;40.53;43.29;;
40465;Laerm;30489;48.982;8.394;2023-07-31T10:20:26;41.95;40.62;43.04;;
40465;Laerm;30489;48.982;8.394;2023-07-31T10:22:36;41.95;40.62;43.09;;
40465;Laerm;30489;48.982;8.394;2023-07-31T10:24:46;41.95;40.71;43.09;;
40465;Laerm;30489;48.982;8.394;2023-07-31T10:26:58;41.97;40.63;43.04;;
40465;Laerm;30489;48.982;8.394;2023-07-31T10:29:09;41.95;40.53;43.24;;
40465;Laerm;30489;48.982;8.394;2023-07-31T10:31:20;41.96;40.71;43.54;;
40465;Laerm;30489;48.982;8.394;2023-07-31T10:33:31;41.97;40.33;44.03;;
40465;Laerm;30489;48.982;8.394;2023-07-31T10:35:41;41.98;40.71;43.34;;
40465;Laerm;30489;48.982;8.394;2023-07-31T10:37:51;41.95;40.62;43.09;;
40465;Laerm;30489;48.982;8.394;2023-07-31T10:42:12;41.94;40.62;43.04;;
40465;Laerm;30489;48.982;8.394;2023-07-31T10:44:23;41.94;40.33;43.19;;
40465;Laerm;30489;48.982;8.394;2023-07-31T10:46:33;41.97;40.43;43.24;;
40465;Laerm;30489;48.982;8.394;2023-07-31T10:48:43;41.94;40.43;43.09;;
40465;Laerm;30489;48.982;8.394;2023-07-31T10:50:56;41.96;40.53;43.14;;
40465;Laerm;30489;48.982;8.394;2023-07-31T10:53:06;41.96;40.53;43.09;;
40465;Laerm;30489;48.982;8.394;2023-07-31T10:55:41;41.94;40.62;43.19;;
40465;Laerm;30489;48.982;8.394;2023-07-31T10:57:52;41.96;40.71;43.19;;
40465;Laerm;30489;48.982;8.394;2023-07-31T11:02:29;41.96;40.62;43.04;;
40465;Laerm;30489;48.982;8.394;2023-07-31T11:04:43;41.96;40.71;43.14;;
40465;Laerm;30489;48.982;8.394;2023-07-31T11:06:57;41.96;40.62;43.63;;
40465;Laerm;30489;48.982;8.394;2023-07-31T11:09:08;41.97;40.80;44.27;;
40465;Laerm;30489;48.982;8.394;2023-07-31T11:11:23;41.98;40.71;43.39;;
40465;Laerm;30489;48.982;8.394;2023-07-31T11:13:33;41.97;40.71;43.04;;
40465;Laerm;30489;48.982;8.394;2023-07-31T11:15:44;41.95;40.62;43.19;;
40465;Laerm;30489;48.982;8.394;2023-07-31T11:17:55;41.98;40.71;44.15;;
40465;Laerm;30489;48.982;8.394;2023-07-31T11:20:08;41.96;40.33;43.24;;
40465;Laerm;30489;48.982;8.394;2023-07-31T11:22:18;41.98;40.62;43.09;;
40465;Laerm;30489;48.982;8.394;2023-07-31T11:24:28;41.96;40.53;43.39;;
40465;Laerm;30489;48.982;8.394;2023-07-31T11:26:39;41.96;40.43;43.09;;
40465;Laerm;30489;48.982;8.394;2023-07-31T11:28:57;41.97;40.54;43.04;;
40465;Laerm;30489;48.982;8.394;2023-07-31T11:31:08;41.96;40.62;42.98;;
40465;Laerm;30489;48.982;8.394;2023-07-31T11:33:19;42.00;40.71;44.15;;
40465;Laerm;30489;48.982;8.394;2023-07-31T11:35:32;41.97;40.63;43.58;;
40465;Laerm;30489;48.982;8.394;2023-07-31T11:37:43;41.98;40.62;43.90;;
40465;Laerm;30489;48.982;8.394;2023-07-31T11:40:00;41.96;40.71;43.04;;
40465;Laerm;30489;48.982;8.394;2023-07-31T11:42:10;42.00;40.62;44.31;;
40465;Laerm;30489;48.982;8.394;2023-07-31T11:44:20;41.97;40.71;43.14;;
40465;Laerm;30489;48.982;8.394;2023-07-31T11:46:30;41.95;40.71;43.39;;
40465;Laerm;30489;48.982;8.394;2023-07-31T11:48:41;41.96;40.62;43.09;;
40465;Laerm;30489;48.982;8.394;2023-07-31T11:50:52;41.97;40.45;43.24;;
40465;Laerm;30489;48.982;8.394;2023-07-31T11:53:03;41.96;40.03;43.09;;
40465;Laerm;30489;48.982;8.394;2023-07-31T11:55:16;41.97;40.53;43.09;;
40465;Laerm;30489;48.982;8.394;2023-07-31T11:57:26;41.97;40.33;43.09;;
40465;Laerm;30489;48.982;8.394;2023-07-31T11:59:38;41.99;40.62;44.35;;
40465;Laerm;30489;48.982;8.394;2023-07-31T12:01:48;41.97;40.53;45.36;;
40465;Laerm;30489;48.982;8.394;2023-07-31T12:04:03;41.95;40.71;43.09;;
40465;Laerm;30489;48.982;8.394;2023-07-31T12:06:13;41.97;40.53;43.14;;
40465;Laerm;30489;48.982;8.394;2023-07-31T12:08:24;41.97;40.43;43.14;;
40465;Laerm;30489;48.982;8.394;2023-07-31T12:10:34;41.96;40.53;43.34;;
40465;Laerm;30489;48.982;8.394;2023-07-31T12:12:44;41.98;40.71;43.54;;
40465;Laerm;30489;48.982;8.394;2023-07-31T12:15:13;41.97;40.62;43.04;;
40465;Laerm;30489;48.982;8.394;2023-07-31T12:17:23;41.98;40.80;43.19;;
40465;Laerm;30489;48.982;8.394;2023-07-31T12:19:35;41.97;40.62;42.93;;
40465;Laerm;30489;48.982;8.394;2023-07-31T12:21:46;41.98;40.33;43.90;;
40465;Laerm;30489;48.982;8.394;2023-07-31T12:23:56;41.98;40.71;44.51;;